Portada
METAR-TAF:

METAR-TAF

Aeroports :

Harrell Field

Camden, Arkansas, Estats Units d'Amèrica

latitud: 33-37N, longitud: 092-46W, altitud: 40 m

Observació

L'informe es va fer fa 25 minuts, a les 07:55 UTC
Vent calma
Temperatura 17°C
Humitat 100%
Pressió 1014 hPa
Visibilitat: 8.0 km
Cel clar
boirina

METAR: KCDH 130755Z AUTO 00000KT 5SM BR CLR 17/17 A2994 RMK AO2

Hora: 03:20 (08:20 UTC)


TAF: manca

Observacions i pronòstics meteorològics de més de 4000 aeroports (METAR i TAF).

Les estacions disponibles són els punts grocs i vermells al mapa.

Posi el ratolí al punt desitjat per veure el nom de l'estació.

Feu clic per veure les observacions i els pronòstics meteorològics.

Per canviar el mapa: feu clic els botons verds amb una creu de color negre per apropar; al botó verd amb un guió per allunyar la imatge; o en les fletxes verdes per a mapes adjacents.


METAR-TAF: